createdAt,value
2023-04-29T00:03:00.112Z,10.8
2023-04-29T00:18:00.070Z,10.7
2023-04-29T00:33:00.031Z,10.6
2023-04-29T00:48:00.117Z,10.4
2023-04-29T01:03:00.146Z,10.3
2023-04-29T01:18:00.043Z,10.1
2023-04-29T01:33:00.020Z,10.1
2023-04-29T01:48:00.020Z,9.9
2023-04-29T02:03:00.101Z,9.8
2023-04-29T02:18:00.047Z,9.7
2023-04-29T02:33:00.053Z,9.7
2023-04-29T02:48:00.024Z,9.6
2023-04-29T03:03:00.206Z,9.4
2023-04-29T03:18:00.054Z,9.2
2023-04-29T03:33:00.055Z,9.1
2023-04-29T03:48:00.028Z,8.8
2023-04-29T04:03:00.844Z,8.8
2023-04-29T04:18:00.045Z,8.6
2023-04-29T04:33:00.071Z,8.2
2023-04-29T04:48:00.072Z,8.3
2023-04-29T05:03:00.083Z,8.3
2023-04-29T05:18:00.047Z,8.3
2023-04-29T05:33:00.095Z,8.2
2023-04-29T05:48:00.018Z,8.1
2023-04-29T06:03:00.128Z,8.1
2023-04-29T06:18:00.042Z,8.3
2023-04-29T06:33:00.048Z,8.4
2023-04-29T06:48:00.061Z,8.3
2023-04-29T07:03:00.058Z,8.4
2023-04-29T07:18:00.077Z,8.4
2023-04-29T07:33:00.098Z,8.3
2023-04-29T07:48:00.062Z,8.5
2023-04-29T08:03:00.091Z,8.4
2023-04-29T08:18:00.048Z,8.7
2023-04-29T08:33:00.057Z,8.6
2023-04-29T08:48:00.199Z,8.7
2023-04-29T09:03:00.132Z,8.6
2023-04-29T09:18:00.104Z,8.7
2023-04-29T09:33:00.059Z,8.9
2023-04-29T09:48:00.082Z,10
2023-04-29T10:03:00.061Z,11
2023-04-29T10:18:00.049Z,10.8
2023-04-29T10:33:01.658Z,10.6
2023-04-29T10:48:00.049Z,10.4
2023-04-29T11:03:00.153Z,10.6
2023-04-29T11:18:00.107Z,11.4
2023-04-29T11:33:00.101Z,11.8
2023-04-29T11:48:00.046Z,11.6
2023-04-29T12:03:00.145Z,11.7
2023-04-29T12:18:00.082Z,12.3
2023-04-29T12:33:00.054Z,12
2023-04-29T12:48:00.040Z,11.9
2023-04-29T13:03:00.064Z,12.2
2023-04-29T13:18:00.053Z,12.9
2023-04-29T13:33:07.830Z,13.6
2023-04-29T13:48:08.385Z,13.9
2023-04-29T14:18:00.048Z,16
2023-04-29T14:33:00.065Z,15.3
2023-04-29T14:48:00.046Z,13.9
2023-04-29T15:03:00.477Z,13.2
2023-04-29T15:18:00.108Z,12.8
2023-04-29T15:33:00.114Z,12.7
2023-04-29T15:48:00.055Z,12.8
2023-04-29T16:03:00.102Z,12.9
2023-04-29T16:18:00.076Z,13.1
2023-04-29T16:33:00.031Z,13.2
2023-04-29T16:48:00.179Z,13.2
2023-04-29T17:03:00.072Z,13.1
2023-04-29T17:18:00.071Z,13.1
2023-04-29T17:33:00.055Z,13.3
2023-04-29T17:48:00.071Z,13.1
2023-04-29T18:03:00.083Z,12.9
2023-04-29T18:18:00.045Z,12.6
2023-04-29T18:33:00.033Z,12.4
2023-04-29T18:48:00.120Z,12.1
2023-04-29T19:03:00.043Z,11.7
2023-04-29T19:18:00.100Z,11.4
2023-04-29T19:33:00.101Z,11.1
2023-04-29T19:48:00.270Z,10.8
2023-04-29T20:03:00.042Z,10.8
2023-04-29T20:18:00.015Z,10.9
2023-04-29T20:33:00.077Z,10.8
2023-04-29T20:48:00.009Z,10.9
2023-04-29T21:03:00.092Z,10.8
2023-04-29T21:18:00.055Z,10.6
2023-04-29T21:33:00.031Z,10.4
2023-04-29T21:48:00.210Z,10.6
2023-04-29T22:03:00.081Z,10.8
2023-04-29T22:18:00.042Z,10.8
2023-04-29T22:33:00.052Z,10.3
2023-04-29T22:48:00.072Z,9.8
2023-04-29T23:03:00.032Z,9.5
2023-04-29T23:18:00.116Z,9.6
2023-04-29T23:33:00.035Z,9.1
2023-04-29T23:48:00.092Z,9.2
